CheckWX is a tool to help pilots better visualize weather data.  It is not intended as a substitute for an official pre-flight weather briefing.

21:03:45 UTC

ENBO METAR
Bodø Airport
Bodø, Norway
Current

14 mins ago

ENBO 232050Z 09014KT 9999 SCT040 08/01 Q1011 NOSIG
Observed
May-23 @ 20:50 UTC
Wind
  • 090° at 14 KTS
Visibility
10,000+ meters
Flight Rules
VFR
Cloud Levels
  • Scattered at 4,000' AGL
Temperature
C / 46°F
Dewpoint
C / 34°F
Humidity
62%
Altimeter
29.85" Hg
Pressure
1010.92 hPa
Previous

44 mins ago

ENBO 232020Z 09016KT 9999 FEW040 08/01 Q1011 NOSIG
Observed
May-23 @ 20:20 UTC
Wind
  • 090° at 16 KTS
Visibility
10,000+ meters
Flight Rules
VFR
Cloud Levels
  • Few at 4,000' AGL
Temperature
C / 46°F
Dewpoint
C / 34°F
Humidity
62%
Altimeter
29.85" Hg
Pressure
1010.92 hPa
Previous

2 hours ago

ENBO 231920Z 09017KT 9999 FEW040 09/01 Q1011 NOSIG
Observed
May-23 @ 19:20 UTC
Wind
  • 090° at 17 KTS
Visibility
10,000+ meters
Flight Rules
VFR
Cloud Levels
  • Few at 4,000' AGL
Temperature
C / 48°F
Dewpoint
C / 34°F
Humidity
58%
Altimeter
29.85" Hg
Pressure
1010.92 hPa